Date,TemperatureHighF,TemperatureAvgF,TemperatureLowF,DewpointHighF,DewpointAvgF,DewpointLowF,HumidityHigh,HumidityAvg,HumidityLow,PressureMaxIn,PressureMinIn,WindSpeedMaxMPH,WindSpeedAvgMPH,GustSpeedMaxMPH,PrecipitationSumIn
2014-1-1,4,-12,-24,0,-17,-29,85,77,72,30.68,30.40,4,1,0,0.00
2014-1-2,-1,-18,-28,-8,-23,-33,81,76,70,30.63,30.51,2,0,0,0.00
2014-1-3,17,-6,-30,13,-10,-36,87,79,72,30.56,29.93,19,4,0,0.00
2014-1-4,28,23,17,25,19,10,90,83,73,30.11,29.73,18,8,0,0.00
2014-1-5,21,17,11,17,12,5,88,81,74,30.24,29.95,13,3,0,0.00
2014-1-6,11,3,-3,5,-3,-8,83,77,72,29.94,29.83,13,5,0,0.00
2014-1-7,7,0,-6,3,-5,-11,84,80,76,30.21,29.87,16,7,0,0.00
2014-1-8,16,4,-13,11,-1,-18,85,80,75,30.52,30.22,14,4,0,0.00
2014-1-9,18,7,-10,12,3,-14,84,81,74,30.65,30.34,15,2,0,0.00
2014-1-10,34,26,17,33,23,12,96,89,81,30.34,29.70,13,5,0,0.00
2014-1-11,36,34,33,36,33,29,97,94,85,29.68,29.29,20,7,0,0.01
2014-1-12,34,33,32,31,29,27,93,86,78,29.81,29.54,13,6,0,0.00
2014-1-13,37,34,30,35,31,24,94,88,78,29.69,29.50,15,5,0,0.07
2014-1-14,30,28,22,24,23,20,92,82,74,29.87,29.68,10,2,0,0.01
2014-1-15,22,14,10,19,10,6,90,85,80,30.01,29.80,17,6,0,0.00
2014-1-16,26,22,14,23,19,11,92,90,83,29.87,29.68,17,10,0,0.00
2014-1-17,29,24,19,27,22,17,93,91,88,29.91,29.73,7,2,0,0.05
2014-1-18,20,13,-1,17,9,-5,90,83,71,29.99,29.77,5,2,0,0.00
2014-1-19,24,18,6,22,13,-1,92,81,64,29.76,29.40,19,6,0,0.00
2014-1-20,6,-3,-20,-1,-12,-25,79,68,52,30.36,29.75,12,3,0,0.00
2014-1-21,-1,-18,-34,-11,-24,-40,80,72,60,30.49,30.33,5,1,0,0.00
2014-1-22,7,2,-6,3,-4,-11,84,79,76,30.32,30.09,14,4,0,0.00
2014-1-23,5,-4,-21,-1,-11,-26,80,72,60,30.59,30.25,11,3,0,0.00
2014-1-24,19,8,-19,17,5,-24,92,86,77,30.45,29.30,25,5,0,0.00
2014-1-25,19,6,-2,17,0,-100,91,76,63,29.76,29.24,21,7,0,0.00
2014-1-26,6,-4,-24,2,-8,-29,85,80,75,29.78,29.48,6,2,0,0.00
2014-1-27,5,-2,-10,3,-8,-17,92,77,65,30.18,29.54,15,4,0,0.00
2014-1-28,5,-2,-17,1,-8,-22,85,78,67,30.23,29.96,14,4,0,0.00
2014-1-29,17,9,2,12,4,-3,84,80,69,30.08,29.89,15,6,0,0.00
2014-1-30,27,23,15,24,19,10,93,83,75,30.01,29.61,18,9,0,0.00
2014-1-31,18,14,13,14,10,8,89,82,72,30.22,29.78,16,4,0,0.00
2014-2-1,22,16,12,17,13,9,90,86,80,30.23,30.06,4,1,0,0.00
2014-2-2,18,14,7,13,9,2,89,82,71,30.38,30.09,14,3,0,0.00
2014-2-3,18,3,-15,11,-2,-19,87,78,55,30.45,30.38,6,1,0,0.00
2014-2-4,22,10,-4,12,4,-7,86,76,61,30.56,30.41,5,1,0,0.00
2014-2-5,17,5,-10,7,-1,-14,87,77,63,30.50,30.34,12,3,0,0.00
2014-2-6,16,8,-9,7,2,-13,84,78,65,30.43,30.20,14,4,0,0.00
2014-2-7,13,0,-14,6,-5,-18,87,79,70,30.21,30.13,20,4,0,0.00
2014-2-8,20,4,-12,11,-2,-16,92,77,61,30.35,30.22,8,1,0,0.01
2014-2-9,18,2,-11,8,-4,-15,84,76,58,30.31,30.17,13,2,0,0.00
2014-2-10,10,-1,-12,2,-7,-17,84,74,59,30.55,30.30,15,2,0,0.00
2014-2-11,14,-6,-25,1,-13,-30,84,74,56,30.65,30.47,6,1,0,0.00
2014-2-12,20,15,2,18,12,-2,92,87,80,30.47,30.16,12,5,0,0.00
2014-2-13,23,20,10,20,17,7,90,88,84,30.17,29.68,15,6,0,0.00
2014-2-14,26,20,9,22,17,6,91,87,83,29.95,29.62,11,3,0,0.00
2014-2-15,13,2,-20,6,-3,-25,86,79,65,30.23,29.95,6,2,0,0.00
2014-2-16,18,7,-15,9,0,-20,88,73,51,30.53,30.16,8,2,0,0.00
2014-2-17,18,5,-19,12,-2,-24,92,74,60,30.57,29.97,23,7,0,0.00
2014-2-18,27,19,4,21,15,1,90,85,75,29.97,29.72,13,4,0,0.01
2014-2-19,36,24,10,28,21,7,91,86,69,30.03,29.69,10,2,0,0.01
2014-2-20,36,25,7,33,21,4,94,83,69,30.13,29.52,21,6,0,0.02
2014-2-21,37,30,20,35,28,17,95,92,88,29.51,29.21,27,15,0,0.20
2014-2-22,21,18,14,17,13,10,89,82,74,29.91,29.51,19,10,0,0.00
2014-2-23,19,14,10,12,8,5,87,78,63,30.07,29.91,17,6,0,0.00
2014-2-24,13,8,0,8,3,-4,87,80,66,30.25,30.05,19,5,0,0.00
2014-2-25,15,7,-2,11,2,-5,87,81,72,30.23,30.06,18,5,0,0.00
2014-2-26,10,2,-15,8,-4,-20,92,78,64,30.12,29.58,17,5,0,0.00
2014-2-27,4,-4,-22,-1,-10,-27,82,72,63,30.38,29.59,21,7,0,0.00
2014-2-28,11,-6,-30,7,-12,-36,86,76,69,30.50,30.18,15,5,0,0.00
2014-3-1,12,6,-8,8,0,-14,89,76,64,30.50,30.12,15,6,0,0.00
2014-3-2,3,-9,-27,-5,-16,-33,79,72,59,30.56,30.45,16,3,0,0.00
2014-3-3,14,-8,-29,0,-15,-35,82,70,54,30.64,30.46,11,2,0,0.00
2014-3-4,20,8,-6,12,2,-10,85,78,65,30.45,30.33,10,2,0,0.02
2014-3-5,20,4,-11,2,-6,-16,86,66,42,30.77,30.45,9,2,0,0.00
2014-3-6,22,6,-15,14,0,-20,83,76,65,30.75,30.23,19,7,0,0.00
2014-3-7,28,21,13,26,17,8,93,85,76,30.23,29.95,8,3,0,0.00
2014-3-8,24,13,-4,20,7,-8,90,79,64,30.33,30.10,13,2,0,0.05
2014-3-9,32,13,-13,26,8,-17,92,80,62,30.29,29.75,18,3,0,0.00
2014-3-10,42,33,23,34,29,21,99,85,73,29.75,29.47,14,3,0,0.06
2014-3-11,38,27,14,32,23,11,95,85,70,29.98,29.62,14,3,0,0.00
2014-3-12,28,11,-6,20,-1,-10,80,61,40,30.25,29.98,17,8,0,0.00
2014-3-13,22,5,-19,17,-1,-25,85,76,62,30.25,29.87,23,4,0,0.00
2014-3-14,40,31,22,34,28,16,94,86,74,29.86,29.46,12,3,0,0.03
2014-3-15,34,18,6,32,12,-1,94,76,59,30.51,29.64,17,8,0,0.00
2014-3-16,13,2,-17,1,-8,-22,79,65,49,30.69,30.42,14,3,0,0.00
2014-3-17,21,6,-15,13,-1,-20,82,74,64,30.42,30.15,17,5,0,0.00
2014-3-18,32,24,18,27,18,11,91,77,68,30.21,30.14,13,5,0,0.01
2014-3-19,33,32,28,31,26,20,95,82,62,30.14,29.69,14,4,0,0.09
2014-3-20,32,26,11,31,22,7,95,85,75,30.15,29.72,14,7,0,0.03
2014-3-21,37,23,4,26,18,1,92,81,54,30.20,29.96,12,2,0,0.01
2014-3-22,28,18,9,26,14,5,93,84,74,30.42,29.92,19,7,0,0.00
2014-3-23,18,4,-14,8,-3,-19,84,73,54,30.52,30.42,17,4,0,0.01
2014-3-24,23,3,-19,13,-4,-24,83,72,56,30.48,30.13,12,2,0,0.00
2014-3-25,19,4,-13,10,-4,-17,83,73,52,30.29,30.04,21,5,0,0.00
2014-3-26,26,7,-17,12,-2,-21,81,71,53,30.41,30.24,11,2,0,0.00
2014-3-27,34,28,19,33,25,11,96,89,69,30.24,29.72,12,6,0,0.00
2014-3-28,38,34,26,34,30,22,97,87,71,30.36,29.62,14,5,0,0.33
2014-3-29,40,29,19,26,21,17,92,75,47,30.47,30.34,7,2,0,0.00
2014-3-30,40,26,7,25,17,4,89,71,48,30.40,30.21,8,2,0,0.00
2014-3-31,44,36,24,28,22,15,78,58,42,30.28,30.02,26,7,0,0.00
2014-4-1,41,36,25,35,30,21,93,82,48,30.04,29.72,20,10,0,0.32
2014-4-2,32,25,20,24,19,14,86,77,68,30.39,30.01,22,10,0,0.00
2014-4-3,38,26,8,28,18,5,91,74,51,30.45,30.12,9,3,0,0.00
2014-4-4,39,35,27,33,29,24,95,81,62,30.08,29.47,15,6,0,0.20
2014-4-5,31,24,15,23,16,9,88,73,43,30.22,29.68,19,8,0,0.00
2014-4-6,49,32,14,34,25,11,91,77,54,30.21,30.07,10,1,0,0.15
2014-4-7,49,41,35,33,32,30,86,71,49,30.09,29.74,12,4,0,0.00
2014-4-8,51,40,29,36,32,26,90,75,43,29.94,29.64,14,3,0,0.00
2014-4-9,48,35,20,31,26,18,94,73,42,30.03,29.78,17,3,0,0.00
2014-4-10,50,42,33,40,33,29,92,73,45,29.92,29.55,18,4,0,0.08
2014-4-11,51,38,25,33,28,23,93,71,42,30.09,29.92,9,1,0,0.01
2014-4-12,42,35,27,35,30,25,94,84,65,30.27,30.04,11,3,0,0.02
2014-4-13,46,41,38,43,39,36,95,92,86,30.04,29.84,9,2,0,0.03
2014-4-14,42,31,26,41,18,-100,96,81,78,30.01,29.51,18,-91,0,0.46
2014-4-15,23,14,16,14,-29,-100,82,42,55,30.33,29.99,18,-352,0,0.00
2014-4-16,36,24,8,27,15,5,91,71,44,30.54,30.34,11,4,0,0.00
2014-4-17,41,35,29,30,29,27,94,79,61,30.57,30.33,22,8,0,0.14
2014-4-18,38,34,28,33,30,26,92,86,74,30.54,30.32,13,4,0,0.00
2014-4-19,42,34,23,35,27,21,95,76,53,30.66,30.41,15,5,0,0.01
2014-4-20,40,38,35,39,35,25,96,89,63,30.48,30.16,7,2,0,0.88
2014-4-21,51,42,34,48,41,33,97,95,90,30.16,29.82,7,2,0,0.00
2014-4-22,49,40,35,40,34,29,96,81,61,30.08,29.79,19,7,0,0.00
2014-4-23,47,38,29,29,24,18,86,59,36,30.24,30.08,13,4,0,0.00
2014-4-24,53,39,26,34,28,23,93,66,40,30.29,30.09,14,4,0,0.00
2014-4-25,46,42,35,35,29,23,92,62,46,30.09,29.82,18,7,0,0.10
2014-4-26,47,39,29,36,32,25,95,77,50,30.29,29.89,16,4,0,0.16
2014-4-27,53,39,25,36,28,22,92,67,40,30.40,30.29,13,4,0,0.00
2014-4-28,56,46,31,38,28,22,83,51,35,30.38,30.11,18,7,0,0.00
2014-4-29,48,46,45,44,38,28,94,76,46,30.13,29.85,21,10,0,0.62
2014-4-30,47,46,44,46,44,42,96,95,93,29.95,29.87,20,7,0,0.26
2014-5-1,44,43,40,44,42,39,96,95,91,29.87,29.73,10,2,0,0.27
2014-5-2,46,41,38,43,40,37,96,94,83,29.77,29.69,8,2,0,0.09
2014-5-3,49,43,39,45,41,37,97,93,83,29.84,29.69,12,4,0,0.08
2014-5-4,48,42,34,40,37,32,94,84,68,30.18,29.83,15,6,0,0.00
2014-5-5,51,40,28,40,34,27,96,80,60,30.23,30.12,6,1,0,0.01
2014-5-6,56,43,26,40,32,24,95,70,45,30.28,30.17,12,2,0,0.00
2014-5-7,56,48,38,37,33,29,82,57,43,30.30,30.16,18,6,0,0.00
2014-5-8,59,51,45,50,42,30,91,72,47,30.19,29.93,23,6,0,0.19
2014-5-9,64,55,49,62,52,47,97,91,75,29.92,29.57,14,5,0,0.27
2014-5-10,52,47,36,47,41,33,93,82,62,30.03,29.68,17,7,0,0.02
2014-5-11,70,51,31,49,42,29,96,74,43,30.11,30.02,7,1,0,0.01
2014-5-12,56,52,44,45,42,39,92,71,56,30.17,30.05,14,5,0,0.01
2014-5-13,56,51,44,55,49,41,97,94,81,30.12,29.90,13,4,0,0.35
2014-5-14,57,46,33,44,38,32,97,74,48,30.27,30.13,14,3,0,0.00
2014-5-15,45,42,38,41,39,37,95,89,75,30.23,29.86,12,5,0,0.31
2014-5-16,44,38,32,37,33,29,100,83,64,30.14,29.95,16,6,0,0.01
2014-5-17,50,40,31,40,34,29,91,79,55,30.18,30.11,10,3,0,0.00
2014-5-18,65,49,32,47,39,30,96,73,46,30.22,30.15,14,3,0,0.00
2014-5-19,71,54,37,50,43,35,93,69,44,30.27,30.18,14,3,0,0.00
2014-5-20,52,50,47,49,46,43,92,86,72,30.20,30.01,20,5,0,0.09
2014-5-21,68,54,47,58,50,45,94,88,65,30.02,29.88,10,2,0,0.31
2014-5-22,53,45,41,49,43,40,95,91,82,30.16,29.96,13,6,0,0.00
2014-5-23,71,55,40,51,44,39,96,70,42,30.24,30.15,15,6,0,0.01
2014-5-24,77,59,37,52,45,36,95,66,34,30.30,30.16,11,2,0,0.00
2014-5-25,82,62,42,58,49,40,95,66,38,30.19,30.04,13,3,0,0.00
2014-5-26,80,64,44,65,54,42,94,73,51,30.05,29.90,11,3,0,0.00
2014-5-27,75,61,49,59,52,45,97,76,39,30.05,29.90,16,4,0,0.00
2014-5-28,72,59,40,56,49,38,95,73,54,30.23,30.05,12,2,0,0.00
2014-5-29,78,61,42,59,52,40,96,74,47,30.29,30.16,9,2,0,0.00
2014-5-30,78,62,44,62,54,43,97,77,52,30.30,30.20,12,2,0,0.00
2014-5-31,76,64,50,57,49,41,96,64,34,30.36,30.21,16,5,0,0.00
2014-6-1,74,64,54,56,50,41,83,61,48,30.22,29.95,16,5,0,0.00
2014-6-2,72,63,59,68,61,55,97,92,84,29.96,29.66,13,4,0,0.79
2014-6-3,63,57,49,62,54,45,97,89,74,29.90,29.65,16,5,0,0.06
2014-6-4,65,53,38,50,45,37,97,76,50,30.00,29.91,17,5,0,0.00
2014-6-5,46,46,45,44,44,43,90,90,90,30.00,29.99,1,0,0,0.00
2014-12-3,28,25,20,24,21,19,92,86,71,30.30,30.00,19,10,0,0.00
2014-12-4,24,17,11,21,14,9,92,88,80,30.59,30.30,5,2,0,0.04
2014-12-5,31,29,20,29,25,16,93,85,80,30.48,30.30,10,2,0,0.00
2014-12-6,31,25,5,30,19,2,95,78,50,30.84,30.36,12,2,0,0.01
2014-12-7,33,22,4,28,17,1,90,82,73,30.90,30.50,15,5,0,0.00
2014-12-8,36,34,32,33,30,26,96,86,76,30.50,30.12,16,6,0,0.00
2014-12-9,34,27,12,33,23,7,97,87,76,30.58,30.15,15,3,0,0.00
2014-12-10,26,6,-8,17,1,-11,87,81,67,30.62,30.36,5,1,0,0.00
2014-12-11,36,16,-7,33,12,-11,93,85,70,30.35,30.15,16,4,0,0.05
2014-12-12,37,35,32,35,33,31,96,94,93,30.25,30.17,12,4,0,0.01
2014-12-13,36,34,32,35,33,31,97,96,93,30.21,30.02,7,2,0,0.02
2014-12-14,38,36,35,37,36,34,97,97,96,30.14,30.02,5,1,0,0.01
2014-12-15,39,38,36,39,37,35,98,97,97,30.12,29.92,10,2,0,0.02
2014-12-16,42,39,32,42,38,31,100,97,95,29.94,29.82,7,1,0,0.53
2014-12-17,32,25,21,30,23,18,95,91,88,30.28,29.94,10,3,0,0.00
2014-12-18,28,14,3,18,9,0,89,82,57,30.42,30.28,9,1,0,0.04
2014-12-19,27,11,-1,18,7,-5,91,84,68,30.48,30.40,3,0,0,0.01
2014-12-20,27,16,3,21,13,0,92,88,78,30.48,30.40,2,0,0,0.00
2014-12-21,33,28,23,31,25,20,93,89,83,30.40,30.23,13,4,0,0.00
2014-12-22,36,34,33,32,30,28,91,86,80,30.23,30.10,13,7,0,0.01
2014-12-23,36,34,32,35,32,29,96,92,87,30.10,29.88,13,5,0,0.11
2014-12-24,38,36,35,37,35,34,97,97,96,29.90,29.33,7,1,0,0.12
2014-12-25,37,35,34,35,33,32,96,90,83,30.06,29.33,13,6,0,0.01